Observation data for Ralls on 04/09/2020      Previous  Date  Next       Current Mesonet Observations  Soil Data  Daily Summary Page  Observations in Plain Language
KRLS 090500Z 11004KT 16/M02 A3001 RMK A01 T01551018  RH  031%=      5-min Rain = 0
KRLS 090505Z 12004KT 16/M02 A3001 RMK A01 T01591021  RH  029%=      5-min Rain = 0
KRLS 090510Z 11004KT 16/M02 A3002 RMK A01 T01571016  RH  031%=      5-min Rain = 0
KRLS 090515Z 12003KT 16/M02 A3001 RMK A01 T01581017  RH  030%=      5-min Rain = 0
KRLS 090520Z 13001KT 15/00 A3001 RMK A01 T01470003  RH  038%=      5-min Rain = 0
KRLS 090525Z 13001KT 14/01 A3001 RMK A01 T01410005  RH  040%=      5-min Rain = 0
KRLS 090530Z 14002KT 15/M01 A3001 RMK A01 T01461005  RH  036%=      5-min Rain = 0
KRLS 090535Z 14002KT 15/M00 A3001 RMK A01 T01471003  RH  036%=      5-min Rain = 0
KRLS 090540Z 14003KT 15/01 A3001 RMK A01 T01450011  RH  041%=      5-min Rain = 0
KRLS 090545Z 17001KT 14/01 A3001 RMK A01 T01440008  RH  040%=      5-min Rain = 0
KRLS 090550Z 30001KT 14/02 A3002 RMK A01 T01350018  RH  046%=      5-min Rain = 0
KRLS 090555Z 32003KT 14/01 A3002 RMK A01 T01410006  RH  040%=      5-min Rain = 0
KRLS 090600Z 35001KT 14/00 A3001 RMK A01 T01440003  RH  038%=      5-min Rain = 0
KRLS 090605Z 06000KT 15/M01 A3001 RMK A01 T01531005  RH  034%=      5-min Rain = 0
KRLS 090610Z 08001KT 16/M01 A3001 RMK A01 T01611006  RH  033%=      5-min Rain = 0
KRLS 090615Z 07001KT 16/M00 A3001 RMK A01 T01571003  RH  034%=      5-min Rain = 0
KRLS 090620Z 04001KT 14/01 A30 RMK A01 T01410013  RH  043%=      5-min Rain = 0
KRLS 090625Z 32001KT 13/02 A3001 RMK A01 T01320023  RH  048%=      5-min Rain = 0
KRLS 090630Z 29003KT 13/04 A3001 RMK A01 T01280040  RH  056%=      5-min Rain = 0
KRLS 090635Z 29002KT 13/04 A3001 RMK A01 T01270040  RH  057%=      5-min Rain = 0
KRLS 090640Z 29002KT 13/03 A3001 RMK A01 T01300034  RH  053%=      5-min Rain = 0
KRLS 090645Z 31004KT 13/03 A3001 RMK A01 T01330026  RH  049%=      5-min Rain = 0
KRLS 090650Z 32005KT 14/02 A30 RMK A01 T01400015  RH  043%=      5-min Rain = 0
KRLS 090655Z 33004KT 14/01 A30 RMK A01 T01410010  RH  041%=      5-min Rain = 0
KRLS 090700Z 33005KT 14/01 A30 RMK A01 T01420011  RH  041%=      5-min Rain = 0
KRLS 090705Z 32006KT 14/01 A30 RMK A01 T01400011  RH  042%=      5-min Rain = 0
KRLS 090710Z 31005KT 14/01 A3001 RMK A01 T01400011  RH  042%=      5-min Rain = 0
KRLS 090715Z 33005KT 14/01 A30 RMK A01 T01400011  RH  042%=      5-min Rain = 0
KRLS 090720Z 33005KT 14/01 A30 RMK A01 T01390013  RH  043%=      5-min Rain = 0
KRLS 090725Z 34005KT 14/01 A30 RMK A01 T01430008  RH  040%=      5-min Rain = 0
KRLS 090730Z 34007KT 15/01 A2999 RMK A01 T01460006  RH  039%=      5-min Rain = 0
KRLS 090735Z 35007KT 14/01 A2999 RMK A01 T01440006  RH  039%=      5-min Rain = 0
KRLS 090740Z 00008KT 15/00 A30 RMK A01 T01540003  RH  036%=      5-min Rain = 0
KRLS 090745Z 01009KT 16/01 A30 RMK A01 T01560005  RH  036%=      5-min Rain = 0
KRLS 090750Z 01009KT 15/01 A30 RMK A01 T01520008  RH  038%=      5-min Rain = 0
KRLS 090755Z 02009KT 15/01 A30 RMK A01 T01530012  RH  039%=      5-min Rain = 0
KRLS 090800Z 02008KT 15/02 A2999 RMK A01 T01510016  RH  041%=      5-min Rain = 0
KRLS 090805Z 01006KT 15/02 A2999 RMK A01 T01530020  RH  041%=      5-min Rain = 0
KRLS 090810Z 01006KT 15/02 A2999 RMK A01 T01530022  RH  042%=      5-min Rain = 0
KRLS 090815Z 02006KT 15/02 A2999 RMK A01 T01540022  RH  042%=      5-min Rain = 0
KRLS 090820Z 03007KT 15/02 A2999 RMK A01 T01530022  RH  042%=      5-min Rain = 0
KRLS 090825Z 03007KT 15/02 A2999 RMK A01 T01480020  RH  043%=      5-min Rain = 0
KRLS 090830Z 04007KT 15/02 A2999 RMK A01 T01460022  RH  044%=      5-min Rain = 0
KRLS 090835Z 05006KT 14/02 A2999 RMK A01 T01420023  RH  045%=      5-min Rain = 0
KRLS 090840Z 05007KT 14/03 A2999 RMK A01 T01400027  RH  047%=      5-min Rain = 0
KRLS 090845Z 05007KT 14/03 A2999 RMK A01 T01370030  RH  049%=      5-min Rain = 0
KRLS 090850Z 05007KT 14/03 A2999 RMK A01 T01370032  RH  050%=      5-min Rain = 0
KRLS 090855Z 06007KT 14/04 A2999 RMK A01 T01370036  RH  051%=      5-min Rain = 0
KRLS 090900Z 06007KT 13/04 A2999 RMK A01 T01310037  RH  054%=      5-min Rain = 0
KRLS 090905Z 07007KT 13/04 A2999 RMK A01 T01270037  RH  055%=      5-min Rain = 0
KRLS 090910Z 08007KT 13/04 A2999 RMK A01 T01260042  RH  058%=      5-min Rain = 0
KRLS 090915Z 08008KT 13/04 A2999 RMK A01 T01290044  RH  057%=      5-min Rain = 0
KRLS 090920Z 07008KT 14/05 A2999 RMK A01 T01360047  RH  056%=      5-min Rain = 0
KRLS 090925Z 06008KT 14/05 A2999 RMK A01 T01400046  RH  054%=      5-min Rain = 0
KRLS 090930Z 06007KT 14/05 A2998 RMK A01 T01420045  RH  053%=      5-min Rain = 0
KRLS 090935Z 07006KT 14/05 A2998 RMK A01 T01360046  RH  055%=      5-min Rain = 0
KRLS 090940Z 07007KT 13/05 A2998 RMK A01 T01340048  RH  057%=      5-min Rain = 0
KRLS 090945Z 07007KT 14/05 A2998 RMK A01 T01350048  RH  057%=      5-min Rain = 0
KRLS 090950Z 08007KT 13/05 A2998 RMK A01 T01320047  RH  057%=      5-min Rain = 0
KRLS 090955Z 07007KT 13/05 A2998 RMK A01 T01310047  RH  058%=      5-min Rain = 0
KRLS 091000Z 07007KT 13/05 A2998 RMK A01 T01310047  RH  058%=      5-min Rain = 0
KRLS 091005Z 07006KT 13/05 A2998 RMK A01 T01320046  RH  057%=      5-min Rain = 0
KRLS 091010Z 07005KT 13/05 A2997 RMK A01 T01290046  RH  058%=      5-min Rain = 0
KRLS 091015Z 07005KT 13/05 A2997 RMK A01 T01280046  RH  059%=      5-min Rain = 0
KRLS 091020Z 08005KT 13/05 A2997 RMK A01 T01290048  RH  059%=      5-min Rain = 0
KRLS 091025Z 09006KT 13/05 A2997 RMK A01 T01310047  RH  058%=      5-min Rain = 0
KRLS 091030Z 09005KT 13/05 A2997 RMK A01 T01330045  RH  056%=      5-min Rain = 0
KRLS 091035Z 09005KT 13/04 A2997 RMK A01 T01330042  RH  055%=      5-min Rain = 0
KRLS 091040Z 09006KT 13/04 A2997 RMK A01 T01300042  RH  056%=      5-min Rain = 0
KRLS 091045Z 10005KT 13/04 A2997 RMK A01 T01300042  RH  056%=      5-min Rain = 0
KRLS 091050Z 11004KT 13/04 A2998 RMK A01 T01310039  RH  055%=      5-min Rain = 0
KRLS 091055Z 11004KT 13/04 A2998 RMK A01 T01310038  RH  054%=      5-min Rain = 0
KRLS 091100Z 10004KT 13/04 A2998 RMK A01 T01290037  RH  055%=      5-min Rain = 0
KRLS 091105Z 09003KT 13/04 A2999 RMK A01 T01260038  RH  056%=      5-min Rain = 0
KRLS 091110Z 09003KT 13/04 A2999 RMK A01 T01270040  RH  057%=      5-min Rain = 0
KRLS 091115Z 09003KT 13/04 A2999 RMK A01 T01280041  RH  057%=      5-min Rain = 0
KRLS 091120Z 08004KT 13/04 A2999 RMK A01 T01290039  RH  055%=      5-min Rain = 0
KRLS 091125Z 08005KT 13/04 A2999 RMK A01 T01270040  RH  056%=      5-min Rain = 0
KRLS 091130Z 08005KT 13/04 A2999 RMK A01 T01270039  RH  056%=      5-min Rain = 0
KRLS 091135Z 09006KT 13/04 A2999 RMK A01 T01260039  RH  056%=      5-min Rain = 0
KRLS 091140Z 09007KT 13/04 A2999 RMK A01 T01260037  RH  056%=      5-min Rain = 0
KRLS 091145Z 09006KT 13/04 A2999 RMK A01 T01270036  RH  055%=      5-min Rain = 0
KRLS 091150Z 09005KT 13/03 A2999 RMK A01 T01270034  RH  054%=      5-min Rain = 0
KRLS 091155Z 09005KT 12/03 A2999 RMK A01 T01240034  RH  055%=      5-min Rain = 0
KRLS 091200Z 09005KT 12/03 A30 RMK A01 T01240034  RH  055%=      5-min Rain = 0
KRLS 091205Z 09005KT 13/03 A30 RMK A01 T01250033  RH  055%=      5-min Rain = 0
KRLS 091210Z 09005KT 13/03 A30 RMK A01 T01280033  RH  054%=      5-min Rain = 0
KRLS 091215Z 08006KT 13/03 A30 RMK A01 T01290034  RH  053%=      5-min Rain = 0
KRLS 091220Z 08006KT 13/04 A30 RMK A01 T01300035  RH  053%=      5-min Rain = 0
KRLS 091225Z 08006KT 13/04 A3001 RMK A01 T01300035  RH  054%=      5-min Rain = 0
KRLS 091230Z 08006KT 13/04 A3001 RMK A01 T01310035  RH  053%=      5-min Rain = 0
KRLS 091235Z 08005KT 13/04 A3001 RMK A01 T01310036  RH  053%=      5-min Rain = 0
KRLS 091240Z 09005KT 13/04 A3001 RMK A01 T01320035  RH  053%=      5-min Rain = 0
KRLS 091245Z 08006KT 13/04 A3001 RMK A01 T01320035  RH  053%=      5-min Rain = 0
KRLS 091250Z 08006KT 13/04 A3001 RMK A01 T01310037  RH  054%=      5-min Rain = 0
KRLS 091255Z 08005KT 13/04 A3002 RMK A01 T01310037  RH  054%=      5-min Rain = 0
KRLS 091300Z 08006KT 13/04 A3002 RMK A01 T01330038  RH  054%=      5-min Rain = 0
KRLS 091305Z 08006KT 14/04 A3002 RMK A01 T01350039  RH  053%=      5-min Rain = 0
KRLS 091310Z 07006KT 14/04 A3002 RMK A01 T01350041  RH  054%=      5-min Rain = 0
KRLS 091315Z 07007KT 14/04 A3002 RMK A01 T01370042  RH  054%=      5-min Rain = 0
KRLS 091320Z 06006KT 14/04 A3002 RMK A01 T01400043  RH  053%=      5-min Rain = 0
KRLS 091325Z 06006KT 14/04 A3002 RMK A01 T01400041  RH  053%=      5-min Rain = 0
KRLS 091330Z 06005KT 14/04 A3002 RMK A01 T01420041  RH  051%=      5-min Rain = 0
KRLS 091335Z 07005KT 14/05 A3002 RMK A01 T01430045  RH  053%=      5-min Rain = 0
KRLS 091340Z 07006KT 14/05 A3002 RMK A01 T01440046  RH  053%=      5-min Rain = 0
KRLS 091345Z 07006KT 15/05 A3002 RMK A01 T01460045  RH  052%=      5-min Rain = 0
KRLS 091350Z 07007KT 15/05 A3003 RMK A01 T01490046  RH  051%=      5-min Rain = 0
KRLS 091355Z 07007KT 15/05 A3003 RMK A01 T01500046  RH  051%=      5-min Rain = 0
KRLS 091400Z 07007KT 15/05 A3003 RMK A01 T01520045  RH  050%=      5-min Rain = 0
KRLS 091405Z 07007KT 15/05 A3003 RMK A01 T01530046  RH  050%=      5-min Rain = 0
KRLS 091410Z 07008KT 16/05 A3003 RMK A01 T01550047  RH  049%=      5-min Rain = 0
KRLS 091415Z 07009KT 16/05 A3003 RMK A01 T01570045  RH  048%=      5-min Rain = 0
KRLS 091420Z 07009KT 16/04 A3004 RMK A01 T01590044  RH  047%=      5-min Rain = 0
KRLS 091425Z 07009KT 16/04 A3004 RMK A01 T01610043  RH  046%=      5-min Rain = 0
KRLS 091430Z 07009KT 16/05 A3004 RMK A01 T01630045  RH  046%=      5-min Rain = 0
KRLS 091435Z 07013KT 16/04 A3004 RMK A01 T01640044  RH  046%=      5-min Rain = 0
KRLS 091440Z 07012KT 16/05 A3004 RMK A01 T01630045  RH  046%=      5-min Rain = 0
KRLS 091445Z 06010KT 16/05 A3005 RMK A01 T01630045  RH  046%=      5-min Rain = 0
KRLS 091450Z 05012G18KT 16/05 A3005 RMK A01 T01640045  RH  046%=      5-min Rain = 0
KRLS 091455Z 06013KT 16/04 A3005 RMK A01 T01620044  RH  046%=      5-min Rain = 0
KRLS 091500Z 05012KT 16/05 A3005 RMK A01 T01630045  RH  046%=      5-min Rain = 0
KRLS 091505Z 05012KT 16/05 A3005 RMK A01 T01620045  RH  047%=      5-min Rain = 0
KRLS 091510Z 06010KT 16/05 A3005 RMK A01 T01620047  RH  047%=      5-min Rain = 0
KRLS 091515Z 06011KT 16/05 A3005 RMK A01 T01610046  RH  047%=      5-min Rain = 0
KRLS 091520Z 06012KT 16/05 A3004 RMK A01 T01610046  RH  047%=      5-min Rain = 0
KRLS 091525Z 06012KT 16/05 A3004 RMK A01 T01610045  RH  047%=      5-min Rain = 0
KRLS 091530Z 05012KT 16/05 A3004 RMK A01 T01620045  RH  047%=      5-min Rain = 0
KRLS 091535Z 06013KT 16/04 A3004 RMK A01 T01610044  RH  047%=      5-min Rain = 0
KRLS 091540Z 06012KT 16/05 A3004 RMK A01 T01630045  RH  047%=      5-min Rain = 0
KRLS 091545Z 06013KT 16/05 A3004 RMK A01 T01640045  RH  046%=      5-min Rain = 0
KRLS 091550Z 05013KT 17/05 A3005 RMK A01 T01650046  RH  046%=      5-min Rain = 0
KRLS 091555Z 06012KT 17/05 A3005 RMK A01 T01670047  RH  046%=      5-min Rain = 0
KRLS 091600Z 06012KT 17/05 A3005 RMK A01 T01650047  RH  047%=      5-min Rain = 0
KRLS 091605Z 06012KT 17/05 A3005 RMK A01 T01650048  RH  047%=      5-min Rain = 0
KRLS 091610Z 06013G18KT 17/05 A3005 RMK A01 T01660049  RH  047%=      5-min Rain = 0
KRLS 091615Z 07014KT 17/05 A3005 RMK A01 T01650048  RH  047%=      5-min Rain = 0
KRLS 091620Z 06014KT 17/05 A3005 RMK A01 T01650049  RH  047%=      5-min Rain = 0
KRLS 091625Z 06013KT 16/05 A3005 RMK A01 T01640050  RH  048%=      5-min Rain = 0
KRLS 091630Z 06013KT 17/05 A3005 RMK A01 T01660051  RH  047%=      5-min Rain = 0
KRLS 091635Z 06013KT 17/05 A3005 RMK A01 T01670051  RH  047%=      5-min Rain = 0
KRLS 091640Z 07012KT 17/05 A3005 RMK A01 T01680052  RH  047%=      5-min Rain = 0
KRLS 091645Z 07012KT 17/05 A3005 RMK A01 T01680051  RH  047%=      5-min Rain = 0
KRLS 091650Z 08013KT 17/05 A3006 RMK A01 T01670050  RH  047%=      5-min Rain = 0
KRLS 091655Z 08012KT 17/05 A3006 RMK A01 T01670051  RH  047%=      5-min Rain = 0
KRLS 091700Z 08012KT 17/05 A3005 RMK A01 T01670052  RH  048%=      5-min Rain = 0
KRLS 091705Z 08013KT 17/05 A3005 RMK A01 T01650052  RH  048%=      5-min Rain = 0
KRLS 091710Z 07012KT 17/06 A3005 RMK A01 T01680055  RH  048%=      5-min Rain = 0
KRLS 091715Z 08012KT 17/05 A3005 RMK A01 T01670053  RH  048%=      5-min Rain = 0
KRLS 091720Z 09011KT 17/05 A3006 RMK A01 T01680052  RH  047%=      5-min Rain = 0
KRLS 091725Z 09011KT 17/05 A3007 RMK A01 T01700052  RH  047%=      5-min Rain = 0
KRLS 091730Z 09008KT 17/05 A3007 RMK A01 T01720053  RH  046%=      5-min Rain = 0
KRLS 091735Z 09009KT 17/05 A3007 RMK A01 T01720052  RH  046%=      5-min Rain = 0
KRLS 091740Z 09008KT 17/05 A3007 RMK A01 T01720053  RH  047%=      5-min Rain = 0
KRLS 091745Z 10010KT 17/05 A3006 RMK A01 T01730051  RH  046%=      5-min Rain = 0
KRLS 091750Z 11008G13KT 17/05 A3006 RMK A01 T01720052  RH  046%=      5-min Rain = 0
KRLS 091755Z 10010KT 17/05 A3006 RMK A01 T01740053  RH  046%=      5-min Rain = 0
KRLS 091800Z 10007KT 17/05 A3007 RMK A01 T01730053  RH  046%=      5-min Rain = 0
KRLS 091805Z 09009KT 17/05 A3006 RMK A01 T01730053  RH  046%=      5-min Rain = 0
KRLS 091810Z 10009KT 18/05 A3006 RMK A01 T01750054  RH  046%=      5-min Rain = 0
KRLS 091815Z 11008KT 18/06 A3006 RMK A01 T01790055  RH  045%=      5-min Rain = 0
KRLS 091820Z 10007KT 17/05 A3006 RMK A01 T01740053  RH  046%=      5-min Rain = 0
KRLS 091825Z 10007KT 18/05 A3006 RMK A01 T01750053  RH  046%=      5-min Rain = 0
KRLS 091830Z 12006KT 18/05 A3006 RMK A01 T01760054  RH  046%=      5-min Rain = 0
KRLS 091835Z 13008KT 18/05 A3006 RMK A01 T01770052  RH  045%=      5-min Rain = 0
KRLS 091840Z 11006KT 18/06 A3007 RMK A01 T01780055  RH  045%=      5-min Rain = 0
KRLS 091845Z 11005KT 18/06 A3007 RMK A01 T01800055  RH  045%=      5-min Rain = 0
KRLS 091850Z 11005G10KT 18/06 A3007 RMK A01 T01790055  RH  045%=      5-min Rain = 0
KRLS 091855Z 10004KT 18/06 A3006 RMK A01 T01810056  RH  045%=      5-min Rain = 0
KRLS 091900Z 09006KT 18/06 A3006 RMK A01 T01810057  RH  045%=      5-min Rain = 0
KRLS 091905Z 09005KT 18/06 A3007 RMK A01 T01810057  RH  045%=      5-min Rain = 0
KRLS 091910Z 09004KT 18/06 A3006 RMK A01 T01780057  RH  046%=      5-min Rain = 0
KRLS 091915Z 08004G9KT 18/06 A3006 RMK A01 T01810059  RH  046%=      5-min Rain = 0
KRLS 091920Z 08004KT 18/06 A3006 RMK A01 T01810059  RH  046%=      5-min Rain = 0
KRLS 091925Z 09005KT 18/06 A3006 RMK A01 T01810058  RH  045%=      5-min Rain = 0
KRLS 091930Z 09006KT 18/06 A3005 RMK A01 T01840059  RH  045%=      5-min Rain = 0
KRLS 091935Z 11007KT 19/06 A3005 RMK A01 T01870059  RH  044%=      5-min Rain = 0
KRLS 091940Z 11007KT 19/06 A3005 RMK A01 T01850058  RH  044%=      5-min Rain = 0
KRLS 091945Z 11008KT 18/06 A3004 RMK A01 T01830057  RH  045%=      5-min Rain = 0
KRLS 091950Z 12008KT 18/06 A3004 RMK A01 T01830057  RH  044%=      5-min Rain = 0
KRLS 091955Z 10008KT 18/06 A3003 RMK A01 T01830058  RH  045%=      5-min Rain = 0
KRLS 092000Z 12007KT 19/06 A3003 RMK A01 T01860059  RH  044%=      5-min Rain = 0
KRLS 092005Z 11007KT 19/06 A3002 RMK A01 T01880061  RH  044%=      5-min Rain = 0
KRLS 092010Z 12009KT 19/06 A3002 RMK A01 T01900059  RH  043%=      5-min Rain = 0
KRLS 092015Z 12010KT 19/06 A3001 RMK A01 T01900059  RH  043%=      5-min Rain = 0
KRLS 092020Z 11011KT 19/06 A3001 RMK A01 T01880059  RH  044%=      5-min Rain = 0
KRLS 092025Z 11009KT 19/06 A3001 RMK A01 T01860059  RH  044%=      5-min Rain = 0
KRLS 092030Z 09009KT 19/06 A3001 RMK A01 T01860060  RH  045%=      5-min Rain = 0
KRLS 092035Z 09008KT 19/06 A3001 RMK A01 T01850059  RH  045%=      5-min Rain = 0
KRLS 092040Z 09006KT 19/06 A3001 RMK A01 T01850059  RH  045%=      5-min Rain = 0
KRLS 092045Z 09007KT 19/06 A3001 RMK A01 T01860061  RH  045%=      5-min Rain = 0
KRLS 092050Z 10008KT 19/06 A30 RMK A01 T01860061  RH  045%=      5-min Rain = 0
KRLS 092055Z 09010KT 19/06 A30 RMK A01 T01870062  RH  045%=      5-min Rain = 0
KRLS 092100Z 09008KT 19/06 A30 RMK A01 T01880061  RH  044%=      5-min Rain = 0
KRLS 092105Z 05007KT 19/06 A3001 RMK A01 T01860061  RH  045%=      5-min Rain = 0
KRLS 092110Z 07007KT 19/06 A3001 RMK A01 T01860060  RH  045%=      5-min Rain = 0
KRLS 092115Z 09010KT 19/06 A30 RMK A01 T01890062  RH  044%=      5-min Rain = 0
KRLS 092120Z 09010KT 19/06 A30 RMK A01 T01920061  RH  043%=      5-min Rain = 0
KRLS 092125Z 09009KT 20/06 A30 RMK A01 T01950060  RH  042%=      5-min Rain = 0
KRLS 092130Z 08008KT 20/06 A30 RMK A01 T01950064  RH  043%=      5-min Rain = 0
KRLS 092135Z 09007KT 20/06 A30 RMK A01 T01970064  RH  043%=      5-min Rain = 0
KRLS 092140Z 11005KT 20/06 A30 RMK A01 T01950062  RH  043%=      5-min Rain = 0
KRLS 092145Z 13007KT 19/06 A2999 RMK A01 T01910059  RH  043%=      5-min Rain = 0
KRLS 092150Z 13008KT 19/06 A2999 RMK A01 T01910060  RH  043%=      5-min Rain = 0
KRLS 092155Z 13006KT 19/06 A2999 RMK A01 T01900060  RH  044%=      5-min Rain = 0
KRLS 092200Z 14007KT 19/06 A2999 RMK A01 T01890060  RH  044%=      5-min Rain = 0
KRLS 092205Z 14007KT 19/06 A2999 RMK A01 T01870060  RH  044%=      5-min Rain = 0
KRLS 092210Z 13005KT 19/06 A2999 RMK A01 T01860060  RH  045%=      5-min Rain = 0
KRLS 092215Z 12006KT 19/06 A2999 RMK A01 T01860062  RH  045%=      5-min Rain = 0
KRLS 092220Z 13008KT 19/06 A2999 RMK A01 T01860061  RH  045%=      5-min Rain = 0
KRLS 092225Z 12009KT 19/06 A2999 RMK A01 T01850061  RH  045%=      5-min Rain = 0
KRLS 092230Z 12008KT 19/06 A2999 RMK A01 T01850062  RH  046%=      5-min Rain = 0
KRLS 092235Z 12010KT 18/06 A2999 RMK A01 T01840064  RH  047%=      5-min Rain = 0
KRLS 092240Z 11010KT 18/06 A2999 RMK A01 T01840064  RH  047%=      5-min Rain = 0
KRLS 092245Z 10010KT 18/07 A2999 RMK A01 T01820065  RH  047%=      5-min Rain = 0
KRLS 092250Z 09009KT 18/07 A2999 RMK A01 T01810066  RH  048%=      5-min Rain = 0
KRLS 092255Z 08008KT 18/07 A30 RMK A01 T01800067  RH  049%=      5-min Rain = 0
KRLS 092300Z 09010KT 18/07 A2999 RMK A01 T01800067  RH  049%=      5-min Rain = 0
KRLS 092305Z 08011KT 18/07 A2999 RMK A01 T01790065  RH  049%=      5-min Rain = 0
KRLS 092310Z 07011KT 18/06 A2999 RMK A01 T01760064  RH  049%=      5-min Rain = 0
KRLS 092315Z 07012KT 17/06 A2999 RMK A01 T01740063  RH  049%=      5-min Rain = 0
KRLS 092320Z 08014KT 17/06 A2999 RMK A01 T01720062  RH  049%=      5-min Rain = 0
KRLS 092325Z 08013KT 17/06 A2999 RMK A01 T01710061  RH  050%=      5-min Rain = 0
KRLS 092330Z 08014KT 17/06 A2999 RMK A01 T01700061  RH  050%=      5-min Rain = 0
KRLS 092335Z 08013KT 17/06 A2999 RMK A01 T01690061  RH  050%=      5-min Rain = 0
KRLS 092340Z 08013KT 17/06 A2999 RMK A01 T01690061  RH  050%=      5-min Rain = 0
KRLS 092345Z 08012G17KT 17/06 A2999 RMK A01 T01680062  RH  051%=      5-min Rain = 0
KRLS 092350Z 08012KT 17/06 A2999 RMK A01 T01680061  RH  051%=      5-min Rain = 0
KRLS 092355Z 07012KT 17/06 A2999 RMK A01 T01660062  RH  051%=      5-min Rain = 0
KRLS 100000Z 07013KT 17/06 A30 RMK A01 T01650061  RH  052%=      5-min Rain = 0
KRLS 100005Z 07012KT 16/06 A30 RMK A01 T01640061  RH  052%=      5-min Rain = 0
KRLS 100010Z 08011KT 16/06 A30 RMK A01 T01640061  RH  052%=      5-min Rain = 0
KRLS 100015Z 07012KT 16/06 A30 RMK A01 T01640060  RH  052%=      5-min Rain = 0
KRLS 100020Z 05010KT 16/06 A3001 RMK A01 T01640061  RH  052%=      5-min Rain = 0
KRLS 100025Z 05010KT 16/06 A3001 RMK A01 T01640060  RH  051%=      5-min Rain = 0
KRLS 100030Z 05010KT 16/06 A3001 RMK A01 T01630060  RH  052%=      5-min Rain = 0
KRLS 100035Z 05010KT 16/06 A3001 RMK A01 T01620059  RH  052%=      5-min Rain = 0
KRLS 100040Z 05011KT 16/06 A3001 RMK A01 T01610060  RH  052%=      5-min Rain = 0
KRLS 100045Z 05011KT 16/06 A3001 RMK A01 T01600060  RH  053%=      5-min Rain = 0
KRLS 100050Z 06011KT 16/06 A3001 RMK A01 T01580060  RH  053%=      5-min Rain = 0
KRLS 100055Z 06010KT 16/06 A3001 RMK A01 T01570061  RH  054%=      5-min Rain = 0
KRLS 100100Z 06011KT 16/06 A3002 RMK A01 T01560060  RH  054%=      5-min Rain = 0
KRLS 100105Z 06010KT 16/06 A3002 RMK A01 T01550060  RH  054%=      5-min Rain = 0
KRLS 100110Z 05010KT 16/06 A3002 RMK A01 T01550059  RH  054%=      5-min Rain = 0
KRLS 100115Z 04010KT 15/06 A3003 RMK A01 T01540059  RH  054%=      5-min Rain = 0
KRLS 100120Z 04008KT 15/06 A3003 RMK A01 T01520059  RH  055%=      5-min Rain = 0
KRLS 100125Z 06009KT 15/06 A3003 RMK A01 T01500058  RH  055%=      5-min Rain = 0
KRLS 100130Z 07010KT 15/06 A3003 RMK A01 T01490057  RH  056%=      5-min Rain = 0
KRLS 100135Z 08011KT 15/06 A3002 RMK A01 T01480057  RH  056%=      5-min Rain = 0
KRLS 100140Z 08010KT 15/06 A3002 RMK A01 T01460056  RH  056%=      5-min Rain = 0
KRLS 100145Z 08009KT 14/06 A3002 RMK A01 T01440056  RH  057%=      5-min Rain = 0
KRLS 100150Z 08009KT 14/06 A3003 RMK A01 T01420056  RH  057%=      5-min Rain = 0
KRLS 100155Z 07008KT 14/06 A3003 RMK A01 T01390056  RH  058%=      5-min Rain = 0
KRLS 100200Z 07007KT 14/06 A3004 RMK A01 T01370055  RH  059%=      5-min Rain = 0
KRLS 100205Z 08007KT 14/06 A3004 RMK A01 T01350055  RH  060%=      5-min Rain = 0
KRLS 100210Z 09007KT 13/05 A3004 RMK A01 T01320054  RH  060%=      5-min Rain = 0
KRLS 100215Z 09008KT 13/05 A3004 RMK A01 T01320053  RH  060%=      5-min Rain = 0
KRLS 100220Z 08008KT 13/05 A3004 RMK A01 T01300053  RH  061%=      5-min Rain = 0
KRLS 100225Z 08008KT 13/05 A3004 RMK A01 T01290053  RH  061%=      5-min Rain = 0
KRLS 100230Z 09007KT 13/05 A3004 RMK A01 T01290053  RH  061%=      5-min Rain = 0
KRLS 100235Z 10006KT 13/05 A3004 RMK A01 T01280051  RH  061%=      5-min Rain = 0
KRLS 100240Z 09006KT 13/05 A3005 RMK A01 T01260049  RH  061%=      5-min Rain = 0
KRLS 100245Z 10008KT 13/05 A3005 RMK A01 T01280052  RH  061%=      5-min Rain = 0
KRLS 100250Z 09004KT 13/05 A3005 RMK A01 T01290052  RH  061%=      5-min Rain = 0
KRLS 100255Z 09004KT 12/05 A3006 RMK A01 T01220051  RH  063%=      5-min Rain = 0
KRLS 100300Z 08005KT 12/05 A3006 RMK A01 T01220050  RH  063%=      5-min Rain = 0
KRLS 100305Z 08005KT 12/05 A3006 RMK A01 T01170050  RH  065%=      5-min Rain = 0
KRLS 100310Z 07005KT 11/05 A3006 RMK A01 T01120050  RH  067%=      5-min Rain = 0
KRLS 100315Z 07006KT 11/05 A3006 RMK A01 T01080049  RH  068%=      5-min Rain = 0
KRLS 100320Z 05006KT 11/05 A3007 RMK A01 T01090048  RH  068%=      5-min Rain = 0
KRLS 100325Z 05007KT 11/05 A3007 RMK A01 T01130048  RH  066%=      5-min Rain = 0
KRLS 100330Z 05007KT 11/05 A3007 RMK A01 T01130048  RH  066%=      5-min Rain = 0
KRLS 100335Z 05007KT 11/05 A3008 RMK A01 T01110048  RH  067%=      5-min Rain = 0
KRLS 100340Z 06007KT 11/05 A3007 RMK A01 T01090047  RH  067%=      5-min Rain = 0
KRLS 100345Z 06007KT 11/05 A3007 RMK A01 T01070048  RH  068%=      5-min Rain = 0
KRLS 100350Z 07007KT 11/05 A3007 RMK A01 T01060048  RH  069%=      5-min Rain = 0
KRLS 100355Z 08008KT 11/05 A3007 RMK A01 T01070048  RH  068%=      5-min Rain = 0
KRLS 100400Z 08008KT 10/05 A3007 RMK A01 T01040046  RH  069%=      5-min Rain = 0
KRLS 100405Z 08008KT 10/05 A3007 RMK A01 T01020045  RH  069%=      5-min Rain = 0
KRLS 100410Z 09008KT 10/05 A3007 RMK A01 T01030045  RH  069%=      5-min Rain = 0
KRLS 100415Z 08009KT 10/04 A3007 RMK A01 T01040044  RH  068%=      5-min Rain = 0
KRLS 100420Z 08012G17KT 11/04 A3007 RMK A01 T01080040  RH  064%=      5-min Rain = 0
KRLS 100425Z 06013KT 11/04 A3007 RMK A01 T01100036  RH  061%=      5-min Rain = 0
KRLS 100430Z 06013KT 11/03 A3008 RMK A01 T01090033  RH  060%=      5-min Rain = 0
KRLS 100435Z 06015KT 11/03 A3008 RMK A01 T01100030  RH  059%=      5-min Rain = 0
KRLS 100440Z 06012KT 11/03 A3008 RMK A01 T01080028  RH  058%=      5-min Rain = 0
KRLS 100445Z 06011G16KT 11/03 A3009 RMK A01 T01060026  RH  059%=      5-min Rain = 0
KRLS 100450Z 06010G15KT 10/03 A3009 RMK A01 T01040025  RH  059%=      5-min Rain = 0
KRLS 100455Z 06012KT 11/02 A3009 RMK A01 T01050022  RH  057%=      5-min Rain = 0

Page generated in 0.033 seconds.